createdAt,value
2018-10-01T00:00:42.428Z,3.70
2018-10-01T00:01:42.418Z,3.30
2018-10-01T00:02:42.413Z,3.50
2018-10-01T00:03:42.408Z,3.20
2018-10-01T00:04:42.410Z,3.20
2018-10-01T00:05:42.402Z,3.40
2018-10-01T00:06:42.397Z,3.90
2018-10-01T00:07:42.392Z,3.80
2018-10-01T00:08:42.382Z,3.50
2018-10-01T00:09:42.381Z,4.10
2018-10-01T00:10:42.422Z,4.10
2018-10-01T00:11:42.372Z,3.80
2018-10-01T00:12:42.369Z,4.30
2018-10-01T00:13:42.356Z,4.40
2018-10-01T00:14:42.352Z,4.60
2018-10-01T00:15:42.350Z,4.50
2018-10-01T00:16:42.342Z,4.60
2018-10-01T00:17:42.346Z,4.80
2018-10-01T00:18:42.340Z,4.20
2018-10-01T00:19:42.333Z,4.70
2018-10-01T00:20:42.324Z,5.40
2018-10-01T00:21:42.315Z,4.90
2018-10-01T00:22:42.311Z,4.40
2018-10-01T00:23:42.310Z,4.50
2018-10-01T00:24:42.305Z,4.60
2018-10-01T00:25:42.295Z,4.90
2018-10-01T00:26:42.291Z,5.10
2018-10-01T00:27:42.286Z,4.50
2018-10-01T00:28:42.281Z,4.90
2018-10-01T00:29:42.281Z,5.10
2018-10-01T00:30:42.276Z,5.20
2018-10-01T00:31:42.271Z,4.80
2018-10-01T00:32:42.266Z,4.90
2018-10-01T00:33:42.255Z,4.70
2018-10-01T00:34:42.250Z,4.00
2018-10-01T00:35:42.245Z,4.10
2018-10-01T00:36:42.239Z,4.50
2018-10-01T00:37:42.239Z,4.40
2018-10-01T00:38:42.234Z,5.20
2018-10-01T00:39:42.225Z,4.80
2018-10-01T00:40:42.224Z,4.50
2018-10-01T00:41:42.219Z,4.00
2018-10-01T00:42:42.213Z,4.20
2018-10-01T00:43:42.211Z,4.70
2018-10-01T00:44:42.204Z,4.00
2018-10-01T00:45:42.193Z,4.20
2018-10-01T00:46:42.189Z,4.10
2018-10-01T00:47:42.183Z,4.50
2018-10-01T00:48:42.177Z,4.40
2018-10-01T00:49:42.179Z,4.40
2018-10-01T00:50:42.173Z,4.40
2018-10-01T00:51:42.170Z,4.20
2018-10-01T00:52:42.163Z,4.50
2018-10-01T00:53:42.152Z,4.50
2018-10-01T00:54:42.149Z,4.20
2018-10-01T00:55:42.147Z,4.60
2018-10-01T00:56:42.142Z,4.00
2018-10-01T00:57:42.131Z,4.60
2018-10-01T00:58:42.127Z,4.20
2018-10-01T00:59:42.124Z,4.20
2018-10-01T01:00:42.116Z,5.30
2018-10-01T01:01:42.115Z,4.90
2018-10-01T01:02:42.110Z,5.00
2018-10-01T01:03:42.105Z,4.90
2018-10-01T01:04:42.099Z,5.10
2018-10-01T01:05:42.095Z,4.70
2018-10-01T01:06:42.085Z,4.60
2018-10-01T01:07:42.079Z,4.40
2018-10-01T01:08:42.074Z,4.40
2018-10-01T01:09:42.074Z,4.80
2018-10-01T01:10:42.069Z,4.60
2018-10-01T01:11:42.061Z,4.40
2018-10-01T01:12:42.053Z,4.90
2018-10-01T01:13:42.053Z,5.10
2018-10-01T01:14:42.051Z,4.70
2018-10-01T01:15:42.042Z,4.90
2018-10-01T01:16:42.036Z,4.60
2018-10-01T01:17:42.027Z,4.40
2018-10-01T01:18:42.022Z,4.50
2018-10-01T01:19:42.017Z,4.80
2018-10-01T01:20:42.012Z,4.70
2018-10-01T01:21:42.010Z,4.10
2018-10-01T01:22:42.006Z,4.90
2018-10-01T01:23:42.001Z,4.80
2018-10-01T01:24:41.995Z,4.70
2018-10-01T01:25:41.986Z,4.70
2018-10-01T01:26:41.980Z,4.70
2018-10-01T01:27:41.980Z,4.90
2018-10-01T01:28:41.973Z,4.50
2018-10-01T01:29:41.964Z,4.90
2018-10-01T01:30:41.959Z,4.50
2018-10-01T01:31:41.953Z,4.40
2018-10-01T01:32:41.946Z,4.80
2018-10-01T01:33:41.945Z,4.30
2018-10-01T01:34:41.940Z,4.60
2018-10-01T01:35:41.936Z,4.80
2018-10-01T01:36:41.929Z,4.60
2018-10-01T01:37:41.919Z,4.50
2018-10-01T01:38:41.915Z,4.40
2018-10-01T01:39:41.911Z,4.80
2018-10-01T01:40:41.903Z,4.90
2018-10-01T01:41:41.903Z,4.40
2018-10-01T01:42:41.898Z,4.60
2018-10-01T01:43:41.887Z,4.40
2018-10-01T01:44:41.882Z,5.00
2018-10-01T01:45:41.881Z,4.70
2018-10-01T01:46:41.877Z,4.80
2018-10-01T01:47:41.869Z,5.10
2018-10-01T01:48:41.865Z,4.40
2018-10-01T01:49:41.855Z,4.80
2018-10-01T01:50:41.849Z,4.40
2018-10-01T01:51:41.845Z,4.40
2018-10-01T01:52:41.838Z,4.80
2018-10-01T01:53:41.838Z,4.90
2018-10-01T01:54:41.833Z,4.60
2018-10-01T01:55:41.826Z,5.20
2018-10-01T01:56:41.821Z,4.70
2018-10-01T01:57:41.811Z,4.70
2018-10-01T01:58:41.805Z,4.60
2018-10-01T01:59:41.804Z,4.70
2018-10-01T02:00:41.799Z,4.90
2018-10-01T02:01:41.789Z,4.90
2018-10-01T02:02:41.783Z,4.40
2018-10-01T02:03:41.779Z,4.60
2018-10-01T02:04:41.772Z,4.70
2018-10-01T02:05:41.772Z,4.40
2018-10-01T02:06:41.767Z,4.90
2018-10-01T02:07:41.762Z,4.90
2018-10-01T02:08:41.755Z,5.10
2018-10-01T02:09:41.745Z,4.70
2018-10-01T02:10:41.739Z,4.80
2018-10-01T02:11:41.734Z,5.80
2018-10-01T02:12:41.729Z,5.00
2018-10-01T02:13:41.728Z,5.00
2018-10-01T02:14:41.722Z,5.10
2018-10-01T02:15:41.712Z,5.00
2018-10-01T02:16:41.705Z,5.40
2018-10-01T02:17:41.705Z,5.30
2018-10-01T02:18:41.700Z,4.80
2018-10-01T02:19:41.694Z,5.50
2018-10-01T02:20:41.688Z,5.40
2018-10-01T02:21:41.679Z,4.80
2018-10-01T02:22:41.673Z,5.40
2018-10-01T02:23:41.667Z,5.10
2018-10-01T02:24:41.661Z,5.40
2018-10-01T02:25:41.661Z,5.60
2018-10-01T02:26:41.656Z,5.00
2018-10-01T02:27:41.650Z,4.90
2018-10-01T02:28:41.643Z,5.30
2018-10-01T02:29:41.633Z,5.60
2018-10-01T02:30:41.628Z,5.70
2018-10-01T02:31:41.627Z,5.60
2018-10-01T02:32:41.620Z,5.30
2018-10-01T02:33:41.611Z,5.40
2018-10-01T02:34:41.612Z,5.60
2018-10-01T02:35:41.602Z,5.50
2018-10-01T02:36:41.594Z,5.50
2018-10-01T02:37:41.595Z,5.40
2018-10-01T02:38:41.590Z,5.20
2018-10-01T02:39:41.584Z,5.30
2018-10-01T02:40:41.578Z,5.40
2018-10-01T02:41:41.568Z,5.70
2018-10-01T02:42:41.561Z,5.10
2018-10-01T02:43:41.557Z,5.10
2018-10-01T02:44:41.551Z,5.00
2018-10-01T02:45:41.550Z,5.50
2018-10-01T02:46:41.544Z,5.30
2018-10-01T02:47:41.599Z,4.90
2018-10-01T02:48:41.529Z,4.90
2018-10-01T02:49:41.525Z,5.10
2018-10-01T02:50:41.521Z,4.90
2018-10-01T02:51:41.516Z,4.90
2018-10-01T02:52:41.508Z,4.90
2018-10-01T02:53:41.499Z,5.40
2018-10-01T02:54:41.493Z,5.50
2018-10-01T02:55:41.488Z,5.20
2018-10-01T02:56:41.482Z,5.10
2018-10-01T02:57:41.479Z,5.20
2018-10-01T02:58:41.475Z,5.70
2018-10-01T02:59:41.468Z,5.30
2018-10-01T03:00:41.461Z,4.80
2018-10-01T03:01:41.461Z,5.10
2018-10-01T03:02:41.446Z,5.10
2018-10-01T03:03:41.448Z,4.80
2018-10-01T03:04:41.439Z,5.10
2018-10-01T03:05:41.429Z,5.00
2018-10-01T03:06:41.422Z,5.30
2018-10-01T03:07:41.416Z,5.60
2018-10-01T03:08:41.410Z,5.90
2018-10-01T03:09:41.410Z,5.50
2018-10-01T03:10:41.410Z,5.50
2018-10-01T03:11:41.398Z,5.20
2018-10-01T03:12:41.392Z,5.00
2018-10-01T03:13:41.381Z,5.30
2018-10-01T03:14:41.375Z,5.30
2018-10-01T03:15:41.370Z,5.50
2018-10-01T03:16:41.361Z,5.00
2018-10-01T03:17:41.360Z,5.20
2018-10-01T03:18:41.356Z,5.40
2018-10-01T03:19:41.381Z,5.10
2018-10-01T03:20:41.338Z,4.80
2018-10-01T03:21:41.338Z,4.40
2018-10-01T03:22:41.331Z,4.70
2018-10-01T03:23:41.326Z,4.70
2018-10-01T03:24:41.360Z,4.50
2018-10-01T03:25:41.314Z,5.00
2018-10-01T03:26:41.305Z,4.90
2018-10-01T03:27:41.298Z,5.30
2018-10-01T03:28:41.291Z,5.10
2018-10-01T03:29:41.291Z,5.00
2018-10-01T03:30:41.285Z,4.60
2018-10-01T03:31:41.279Z,4.80
2018-10-01T03:32:41.272Z,5.20
2018-10-01T03:33:41.263Z,5.10
2018-10-01T03:34:41.256Z,4.50
2018-10-01T03:35:41.255Z,5.20
2018-10-01T03:36:41.257Z,4.70
2018-10-01T03:37:41.238Z,5.20
2018-10-01T03:38:41.232Z,5.20
2018-10-01T03:39:41.228Z,5.00
2018-10-01T03:40:41.220Z,5.40
2018-10-01T03:41:41.222Z,5.10
2018-10-01T03:42:41.215Z,4.60
2018-10-01T03:43:41.209Z,4.30
2018-10-01T03:44:41.206Z,4.60
2018-10-01T03:45:41.192Z,4.90
2018-10-01T03:46:41.187Z,5.10
2018-10-01T03:47:41.181Z,4.70
2018-10-01T03:48:41.173Z,5.10
2018-10-01T03:49:41.173Z,5.10
2018-10-01T03:50:41.168Z,5.00
2018-10-01T03:51:41.158Z,4.90
2018-10-01T03:52:41.151Z,4.70
2018-10-01T03:53:41.152Z,4.70
2018-10-01T03:54:41.144Z,5.20
2018-10-01T03:55:41.139Z,5.10
2018-10-01T03:56:41.132Z,5.00
2018-10-01T03:57:41.120Z,4.60
2018-10-01T03:58:41.116Z,4.50
2018-10-01T03:59:41.118Z,4.30
2018-10-01T04:00:41.104Z,5.10
2018-10-01T04:01:41.104Z,4.40
2018-10-01T04:02:41.097Z,4.50
2018-10-01T04:03:41.093Z,4.30
2018-10-01T04:04:41.090Z,4.70
2018-10-01T04:05:41.074Z,4.50
2018-10-01T04:06:41.071Z,4.40
2018-10-01T04:07:41.068Z,4.40
2018-10-01T04:08:41.112Z,4.60
2018-10-01T04:09:41.050Z,4.30
2018-10-01T04:10:41.044Z,4.30
2018-10-01T04:11:41.039Z,4.30
2018-10-01T04:12:41.032Z,4.50
2018-10-01T04:13:41.032Z,4.70
2018-10-01T04:14:41.029Z,4.40
2018-10-01T04:15:41.019Z,4.40
2018-10-01T04:16:41.016Z,4.40
2018-10-01T04:17:41.003Z,4.40
2018-10-01T04:18:40.997Z,4.30
2018-10-01T04:19:40.992Z,4.50
2018-10-01T04:20:40.986Z,4.70
2018-10-01T04:21:40.985Z,4.80
2018-10-01T04:22:41.040Z,4.00
2018-10-01T04:23:40.968Z,4.30
2018-10-01T04:24:40.961Z,4.80
2018-10-01T04:25:40.960Z,4.50
2018-10-01T04:26:40.964Z,4.60
2018-10-01T04:27:40.948Z,4.70
2018-10-01T04:28:40.941Z,4.00
2018-10-01T04:29:40.932Z,4.60
2018-10-01T04:30:40.926Z,4.20
2018-10-01T04:31:40.920Z,4.40
2018-10-01T04:32:40.914Z,4.60
2018-10-01T04:33:40.913Z,4.40
2018-10-01T04:34:40.906Z,4.30
2018-10-01T04:35:40.952Z,4.50
2018-10-01T04:36:40.896Z,4.30
2018-10-01T04:37:40.884Z,4.10
2018-10-01T04:38:40.879Z,4.20
2018-10-01T04:39:40.879Z,4.30
2018-10-01T04:40:40.919Z,4.50
2018-10-01T04:41:40.862Z,4.70
2018-10-01T04:42:40.857Z,4.90
2018-10-01T04:43:40.850Z,4.30
2018-10-01T04:44:40.844Z,4.50
2018-10-01T04:45:40.842Z,4.40
2018-10-01T04:46:40.866Z,4.50
2018-10-01T04:47:40.829Z,4.80
2018-10-01T04:48:40.825Z,4.60
2018-10-01T04:49:40.815Z,4.40
2018-10-01T04:50:40.809Z,4.60
2018-10-01T04:51:40.807Z,4.30
2018-10-01T04:52:40.796Z,5.00
2018-10-01T04:53:40.796Z,4.30
2018-10-01T04:54:40.790Z,4.80
2018-10-01T04:55:40.779Z,4.30
2018-10-01T04:56:40.774Z,5.10
2018-10-01T04:57:40.773Z,4.50
2018-10-01T04:58:40.888Z,4.70
2018-10-01T04:59:40.768Z,4.30
2018-10-01T05:00:40.753Z,4.40
2018-10-01T05:01:40.743Z,4.50
2018-10-01T05:02:40.739Z,4.30
2018-10-01T05:03:40.733Z,3.90
2018-10-01T05:04:40.726Z,4.10
2018-10-01T05:05:40.726Z,4.00
2018-10-01T05:06:40.719Z,4.30
2018-10-01T05:07:40.713Z,4.10
2018-10-01T05:08:40.707Z,4.00
2018-10-01T05:09:40.700Z,3.80
2018-10-01T05:10:40.691Z,3.60
2018-10-01T05:11:40.691Z,3.40
2018-10-01T05:12:40.683Z,3.70
2018-10-01T05:13:40.675Z,3.60
2018-10-01T05:14:40.694Z,3.90
2018-10-01T05:15:40.662Z,3.80
2018-10-01T05:16:40.655Z,3.50
2018-10-01T05:17:40.656Z,3.40
2018-10-01T05:18:40.650Z,3.60
2018-10-01T05:19:40.644Z,3.60
2018-10-01T05:20:40.639Z,3.60
2018-10-01T05:21:40.628Z,3.40
2018-10-01T05:22:40.621Z,3.50
2018-10-01T05:23:40.615Z,3.30
2018-10-01T05:24:40.610Z,3.50
2018-10-01T05:25:40.607Z,3.50
2018-10-01T05:26:40.602Z,3.00
2018-10-01T05:27:40.591Z,3.20
2018-10-01T05:28:40.585Z,2.90
2018-10-01T05:29:40.584Z,3.20
2018-10-01T05:30:40.579Z,3.20
2018-10-01T05:31:40.573Z,3.20
2018-10-01T05:32:40.567Z,3.00
2018-10-01T05:33:40.555Z,3.00
2018-10-01T05:34:40.549Z,2.70
2018-10-01T05:35:40.544Z,3.10
2018-10-01T05:36:40.538Z,3.00
2018-10-01T05:37:40.584Z,2.60
2018-10-01T05:38:40.531Z,3.10
2018-10-01T05:39:40.523Z,3.00
2018-10-01T05:40:40.517Z,3.00
2018-10-01T05:41:40.507Z,2.90
2018-10-01T05:42:40.501Z,2.80
2018-10-01T05:43:40.500Z,2.80
2018-10-01T05:44:40.492Z,2.90
2018-10-01T05:45:40.482Z,3.20
2018-10-01T05:46:40.476Z,3.10
2018-10-01T05:47:40.472Z,2.60
2018-10-01T05:48:40.464Z,2.60
2018-10-01T05:49:40.464Z,2.80
2018-10-01T05:50:40.457Z,2.60
2018-10-01T05:51:40.452Z,2.90
2018-10-01T05:52:40.444Z,2.60
2018-10-01T05:53:40.460Z,2.40
2018-10-01T05:54:40.429Z,2.80
2018-10-01T05:55:40.422Z,2.60
2018-10-01T05:56:40.415Z,2.40
2018-10-01T05:57:40.488Z,3.00
2018-10-01T05:58:40.408Z,2.40
2018-10-01T05:59:40.398Z,2.50
2018-10-01T06:00:40.391Z,2.60
2018-10-01T06:01:40.390Z,2.80
2018-10-01T06:02:40.384Z,2.70
2018-10-01T06:03:40.379Z,2.70
2018-10-01T06:04:40.388Z,2.80
2018-10-01T06:05:40.362Z,2.50
2018-10-01T06:06:40.357Z,3.00
2018-10-01T06:07:40.348Z,2.50
2018-10-01T06:08:40.342Z,2.30
2018-10-01T06:09:40.342Z,2.70
2018-10-01T06:10:40.336Z,2.60
2018-10-01T06:11:40.335Z,2.50
2018-10-01T06:12:40.326Z,2.50
2018-10-01T06:13:40.312Z,2.50
2018-10-01T06:14:40.306Z,2.50
2018-10-01T06:15:40.306Z,2.30
2018-10-01T06:16:40.299Z,2.50
2018-10-01T06:17:40.289Z,2.60
2018-10-01T06:18:40.283Z,2.30
2018-10-01T06:19:40.276Z,2.30
2018-10-01T06:20:40.291Z,2.00
2018-10-01T06:21:40.269Z,2.20
2018-10-01T06:22:40.264Z,2.00
2018-10-01T06:23:40.257Z,2.40
2018-10-01T06:24:40.253Z,2.30
2018-10-01T06:25:40.240Z,1.90
2018-10-01T06:26:40.235Z,1.90
2018-10-01T06:27:40.230Z,2.20
2018-10-01T06:28:40.224Z,2.30
2018-10-01T06:29:40.221Z,1.80
2018-10-01T06:30:40.217Z,2.40
2018-10-01T06:31:40.206Z,2.30
2018-10-01T06:32:40.200Z,2.20
2018-10-01T06:33:40.198Z,2.20
2018-10-01T06:34:40.197Z,1.90
2018-10-01T06:35:40.186Z,2.00
2018-10-01T06:36:40.179Z,2.40
2018-10-01T06:37:40.170Z,2.00
2018-10-01T06:38:40.168Z,2.00
2018-10-01T06:39:40.159Z,2.00
2018-10-01T06:40:40.152Z,1.90
2018-10-01T06:41:40.240Z,1.90
2018-10-01T06:42:40.146Z,1.80
2018-10-01T06:43:40.142Z,1.80
2018-10-01T06:44:40.139Z,1.90
2018-10-01T06:45:40.126Z,1.80
2018-10-01T06:46:40.122Z,1.60
2018-10-01T06:47:40.122Z,1.60
2018-10-01T06:48:40.116Z,1.80
2018-10-01T06:49:40.108Z,1.60
2018-10-01T06:50:40.108Z,1.60
2018-10-01T06:51:40.103Z,1.60
2018-10-01T06:52:40.097Z,1.60
2018-10-01T06:53:40.099Z,1.70
2018-10-01T06:54:40.097Z,1.80
2018-10-01T06:55:40.096Z,1.50
2018-10-01T06:56:40.094Z,1.50
2018-10-01T06:57:40.088Z,1.50
2018-10-01T06:58:40.095Z,1.40
2018-10-01T06:59:40.098Z,1.60
2018-10-01T07:00:40.084Z,1.70
2018-10-01T07:01:40.090Z,1.60
2018-10-01T07:02:40.093Z,1.30
2018-10-01T07:03:40.086Z,1.40
2018-10-01T07:04:40.085Z,1.50
2018-10-01T07:05:40.122Z,1.60
2018-10-01T07:06:40.092Z,1.50
2018-10-01T07:07:40.102Z,1.40
2018-10-01T07:08:40.095Z,1.60
2018-10-01T07:09:40.090Z,1.60
2018-10-01T07:10:40.092Z,1.40
2018-10-01T07:11:40.364Z,1.70
2018-10-01T07:12:40.096Z,1.40
2018-10-01T07:13:40.104Z,1.40
2018-10-01T07:14:40.106Z,1.60
2018-10-01T07:15:40.108Z,1.50
2018-10-01T07:16:40.111Z,1.70
2018-10-01T07:17:40.109Z,1.90
2018-10-01T07:18:40.114Z,1.50
2018-10-01T07:19:40.121Z,1.50
2018-10-01T07:20:40.124Z,1.60
2018-10-01T07:21:40.124Z,1.60
2018-10-01T07:22:40.217Z,1.30
2018-10-01T07:23:40.132Z,1.60
2018-10-01T07:24:40.135Z,1.50
2018-10-01T07:25:40.144Z,1.60
2018-10-01T07:26:40.155Z,1.70
2018-10-01T07:27:40.154Z,1.40
2018-10-01T07:28:40.158Z,1.50
2018-10-01T07:29:40.157Z,1.40
2018-10-01T07:30:40.161Z,1.40
2018-10-01T07:31:40.166Z,1.50
2018-10-01T07:32:40.171Z,1.40
2018-10-01T07:33:40.178Z,1.50
2018-10-01T07:34:40.184Z,1.50
2018-10-01T07:35:40.185Z,1.20
2018-10-01T07:36:40.188Z,1.30
2018-10-01T07:37:40.199Z,1.60
2018-10-01T07:38:40.204Z,1.30
2018-10-01T07:39:40.210Z,1.40
2018-10-01T07:40:40.213Z,1.20
2018-10-01T07:41:40.214Z,1.20
2018-10-01T07:42:40.220Z,1.50
2018-10-01T07:43:40.226Z,1.30
2018-10-01T07:44:40.236Z,1.00
2018-10-01T07:45:40.243Z,1.20
2018-10-01T07:46:40.260Z,0.90
2018-10-01T07:47:40.252Z,1.10
2018-10-01T07:48:40.256Z,1.10
2018-10-01T07:49:40.269Z,1.10
2018-10-01T07:50:40.364Z,1.10
2018-10-01T07:51:40.272Z,1.20
2018-10-01T07:52:40.292Z,0.90
2018-10-01T07:53:40.286Z,1.10
2018-10-01T07:54:40.285Z,1.10
2018-10-01T07:55:40.287Z,0.90
2018-10-01T07:56:40.290Z,1.10
2018-10-01T07:57:40.302Z,0.90
2018-10-01T07:58:40.304Z,1.00
2018-10-01T07:59:40.466Z,1.10
2018-10-01T08:00:40.316Z,1.00
2018-10-01T08:01:40.314Z,0.90
2018-10-01T08:02:40.404Z,1.00
2018-10-01T08:03:40.324Z,1.00
2018-10-01T08:04:40.329Z,1.00
2018-10-01T08:05:40.338Z,0.90
2018-10-01T08:06:40.347Z,1.10
2018-10-01T08:07:40.344Z,0.80
2018-10-01T08:08:40.433Z,1.00
2018-10-01T08:09:40.361Z,1.00
2018-10-01T08:10:40.416Z,0.80
2018-10-01T08:11:40.379Z,0.90
2018-10-01T08:12:40.379Z,1.00
2018-10-01T08:13:40.385Z,1.00
2018-10-01T08:14:40.455Z,0.90
2018-10-01T08:15:40.402Z,1.10
2018-10-01T08:16:40.403Z,1.10
2018-10-01T08:17:40.412Z,1.40
2018-10-01T08:18:40.419Z,1.10
2018-10-01T08:19:40.427Z,1.00
2018-10-01T08:20:40.440Z,1.00
2018-10-01T08:21:40.436Z,1.20
2018-10-01T08:22:40.446Z,1.20
2018-10-01T08:23:40.550Z,0.90
2018-10-01T08:24:40.465Z,1.20
2018-10-01T08:25:40.471Z,1.10
2018-10-01T08:26:40.601Z,1.10
2018-10-01T08:27:40.486Z,1.30
2018-10-01T08:28:40.492Z,1.20
2018-10-01T08:29:40.597Z,1.20
2018-10-01T08:30:40.515Z,1.10
2018-10-01T08:31:40.524Z,1.30
2018-10-01T08:32:40.546Z,1.00
2018-10-01T08:33:40.535Z,1.00
2018-10-01T08:34:40.545Z,1.20
2018-10-01T08:35:40.556Z,0.90
2018-10-01T08:36:40.563Z,1.10
2018-10-01T08:37:40.577Z,1.10
2018-10-01T08:38:40.726Z,1.30
2018-10-01T08:39:40.590Z,1.10
2018-10-01T08:40:40.597Z,1.10
2018-10-01T08:41:40.610Z,1.30
2018-10-01T08:42:40.619Z,1.10
2018-10-01T08:43:40.626Z,1.10
2018-10-01T08:44:40.635Z,1.10
2018-10-01T08:45:40.637Z,1.00
2018-10-01T08:46:40.646Z,1.00
2018-10-01T08:47:40.662Z,1.10
2018-10-01T08:48:40.660Z,0.90
2018-10-01T08:49:40.672Z,1.00
2018-10-01T08:50:40.680Z,1.00
2018-10-01T08:51:40.694Z,0.90
2018-10-01T08:52:40.694Z,0.90
2018-10-01T08:53:40.695Z,0.80
2018-10-01T08:54:40.703Z,0.90
2018-10-01T08:55:40.713Z,0.90
2018-10-01T08:56:40.718Z,1.00
2018-10-01T08:57:40.721Z,0.70
2018-10-01T08:58:40.726Z,0.60
2018-10-01T08:59:40.731Z,0.70
2018-10-01T09:00:40.735Z,0.60
2018-10-01T09:01:40.745Z,0.90
2018-10-01T09:02:40.834Z,1.10
2018-10-01T09:03:40.756Z,0.80
2018-10-01T09:04:40.762Z,0.50
2018-10-01T09:05:40.761Z,0.70
2018-10-01T09:06:40.811Z,0.80
2018-10-01T09:07:40.770Z,0.70
2018-10-01T09:08:40.775Z,0.80
2018-10-01T09:09:40.782Z,0.80
2018-10-01T09:10:40.787Z,0.60
2018-10-01T09:11:40.786Z,0.50
2018-10-01T09:12:40.791Z,0.80
2018-10-01T09:13:40.803Z,0.60
2018-10-01T09:14:40.881Z,0.50
2018-10-01T09:15:40.812Z,0.80
2018-10-01T09:16:40.813Z,0.70
2018-10-01T09:17:40.815Z,0.80
2018-10-01T09:18:40.823Z,0.90
2018-10-01T09:19:40.828Z,1.00
2018-10-01T09:20:40.854Z,0.80
2018-10-01T09:21:40.895Z,0.90
2018-10-01T09:22:40.853Z,1.00
2018-10-01T09:23:40.859Z,1.00
2018-10-01T09:24:40.865Z,1.10
2018-10-01T09:25:40.869Z,0.70
2018-10-01T09:26:40.968Z,1.00
2018-10-01T09:27:40.890Z,1.00
2018-10-01T09:28:40.899Z,0.80
2018-10-01T09:29:40.905Z,0.90
2018-10-01T09:30:40.912Z,1.00
2018-10-01T09:31:40.922Z,0.90
2018-10-01T09:32:40.990Z,0.90
2018-10-01T09:33:40.946Z,1.00
2018-10-01T09:34:40.955Z,1.10
2018-10-01T09:35:40.965Z,0.90
2018-10-01T09:36:40.973Z,0.90
2018-10-01T09:37:40.979Z,1.20
2018-10-01T09:38:41.030Z,0.90
2018-10-01T09:39:40.996Z,1.50
2018-10-01T09:40:41.101Z,1.20
2018-10-01T09:41:41.016Z,0.90
2018-10-01T09:42:41.026Z,0.70
2018-10-01T09:43:41.028Z,1.00
2018-10-01T09:44:41.035Z,0.90
2018-10-01T09:45:41.046Z,0.80
2018-10-01T09:46:41.054Z,1.00
2018-10-01T09:47:41.065Z,0.80
2018-10-01T09:48:41.067Z,1.00
2018-10-01T09:49:41.067Z,0.90
2018-10-01T09:50:41.077Z,0.70
2018-10-01T09:51:41.082Z,0.80
2018-10-01T09:52:41.088Z,1.20
2018-10-01T09:53:41.121Z,0.90
2018-10-01T09:54:41.106Z,0.90
2018-10-01T09:55:41.111Z,0.80
2018-10-01T09:56:41.228Z,1.00
2018-10-01T09:57:41.118Z,0.80
2018-10-01T09:58:41.236Z,0.90
2018-10-01T09:59:41.136Z,0.70
2018-10-01T10:00:41.341Z,0.80
2018-10-01T10:01:41.142Z,0.80
2018-10-01T10:02:41.146Z,0.90
2018-10-01T10:03:41.152Z,0.70
2018-10-01T10:04:41.166Z,0.80
2018-10-01T10:05:41.169Z,0.70
2018-10-01T10:06:41.171Z,0.90
2018-10-01T10:07:41.176Z,0.60
2018-10-01T10:08:41.293Z,0.80
2018-10-01T10:09:41.184Z,0.70
2018-10-01T10:10:41.184Z,0.90
2018-10-01T10:11:41.190Z,0.90
2018-10-01T10:12:41.194Z,0.60
2018-10-01T10:13:41.201Z,1.00
2018-10-01T10:14:41.332Z,0.80
2018-10-01T10:15:41.206Z,0.90
2018-10-01T10:16:41.334Z,0.60
2018-10-01T10:17:41.215Z,0.50
2018-10-01T10:18:41.219Z,0.60
2018-10-01T10:19:41.221Z,0.70
2018-10-01T10:20:41.222Z,0.60
2018-10-01T10:21:41.221Z,0.90
2018-10-01T10:22:41.220Z,0.80
2018-10-01T10:23:41.222Z,0.70
2018-10-01T10:24:41.221Z,0.80
2018-10-01T10:25:41.226Z,0.70
2018-10-01T10:26:41.229Z,0.70
2018-10-01T10:27:41.227Z,1.10
2018-10-01T10:28:41.227Z,1.00
2018-10-01T10:29:41.222Z,0.80
2018-10-01T10:30:41.220Z,0.80
2018-10-01T10:31:41.231Z,0.70
2018-10-01T10:32:41.224Z,0.70
2018-10-01T10:33:41.219Z,0.70
2018-10-01T10:34:41.219Z,0.90
2018-10-01T10:35:41.220Z,0.80
2018-10-01T10:36:41.217Z,0.90
2018-10-01T10:37:41.221Z,0.80
2018-10-01T10:38:41.222Z,0.80
2018-10-01T10:39:41.298Z,0.60
2018-10-01T10:40:41.224Z,0.70
2018-10-01T10:41:41.250Z,0.70
2018-10-01T10:42:41.225Z,0.70
2018-10-01T10:43:41.245Z,0.80
2018-10-01T10:44:41.232Z,0.80
2018-10-01T10:45:41.235Z,0.80
2018-10-01T10:46:41.239Z,0.60
2018-10-01T10:47:41.238Z,0.80
2018-10-01T10:48:41.245Z,0.80
2018-10-01T10:49:41.251Z,0.70
2018-10-01T10:50:41.318Z,0.90
2018-10-01T10:51:41.258Z,0.80
2018-10-01T10:52:41.262Z,0.90
2018-10-01T10:53:41.262Z,0.80
2018-10-01T10:54:41.265Z,1.00
2018-10-01T10:55:41.271Z,1.00
2018-10-01T10:56:41.373Z,1.20
2018-10-01T10:57:41.281Z,1.00
2018-10-01T10:58:41.285Z,0.90
2018-10-01T10:59:41.293Z,0.90
2018-10-01T11:00:41.303Z,0.90
2018-10-01T11:01:41.292Z,0.70
2018-10-01T11:02:41.297Z,0.80
2018-10-01T11:03:41.307Z,0.70
2018-10-01T11:04:41.310Z,0.50
2018-10-01T11:05:41.309Z,0.70
2018-10-01T11:06:41.314Z,0.80
2018-10-01T11:07:41.319Z,0.60
2018-10-01T11:08:41.351Z,0.80
2018-10-01T11:09:41.331Z,0.60
2018-10-01T11:10:41.336Z,0.70
2018-10-01T11:11:41.339Z,0.70
2018-10-01T11:12:41.343Z,0.70
2018-10-01T11:13:41.343Z,0.60
2018-10-01T11:14:41.463Z,0.50
2018-10-01T11:15:41.353Z,0.60
2018-10-01T11:16:41.357Z,0.60
2018-10-01T11:17:41.367Z,0.50
2018-10-01T11:18:41.548Z,0.70
2018-10-01T11:19:41.379Z,0.40
2018-10-01T11:20:41.430Z,0.70
2018-10-01T11:21:41.523Z,0.50
2018-10-01T11:22:41.392Z,0.40
2018-10-01T11:23:41.394Z,0.40
2018-10-01T11:24:41.397Z,0.60
2018-10-01T11:25:41.396Z,1.00
2018-10-01T11:26:41.450Z,1.40
2018-10-01T11:27:41.468Z,1.60
2018-10-01T11:28:41.455Z,1.90
2018-10-01T11:29:41.433Z,1.70
2018-10-01T11:30:41.419Z,1.90
2018-10-01T11:31:41.496Z,1.70
2018-10-01T11:32:41.425Z,1.30
2018-10-01T11:33:41.488Z,1.60
2018-10-01T11:34:41.432Z,1.60
2018-10-01T11:35:41.438Z,1.30
2018-10-01T11:36:41.431Z,1.30
2018-10-01T11:37:41.428Z,0.80
2018-10-01T11:38:41.427Z,0.80
2018-10-01T11:39:41.479Z,0.60
2018-10-01T11:40:41.427Z,0.50
2018-10-01T11:41:41.432Z,0.70
2018-10-01T11:42:41.432Z,0.70
2018-10-01T11:43:41.431Z,0.60
2018-10-01T11:44:41.430Z,0.60
2018-10-01T11:45:41.490Z,0.50
2018-10-01T11:46:41.424Z,0.50
2018-10-01T11:47:41.422Z,0.50
2018-10-01T11:48:41.424Z,0.40
2018-10-01T11:49:41.426Z,0.60
2018-10-01T11:50:41.425Z,0.60
2018-10-01T11:51:41.442Z,0.40
2018-10-01T11:52:41.416Z,0.40
2018-10-01T11:53:41.419Z,0.60
2018-10-01T11:54:41.418Z,0.40
2018-10-01T11:55:41.425Z,0.40
2018-10-01T11:56:41.414Z,0.50
2018-10-01T11:57:41.453Z,0.80
2018-10-01T11:58:41.407Z,0.80
2018-10-01T11:59:41.405Z,0.60
2018-10-01T12:00:41.403Z,0.50
2018-10-01T12:01:41.405Z,0.50
2018-10-01T12:02:41.405Z,0.60
2018-10-01T12:03:41.492Z,0.70
2018-10-01T12:04:41.402Z,0.60
2018-10-01T12:05:41.400Z,0.60
2018-10-01T12:06:41.394Z,0.60
2018-10-01T12:07:41.397Z,0.80
2018-10-01T12:08:41.395Z,1.10
2018-10-01T12:09:41.461Z,1.00
2018-10-01T12:10:41.390Z,1.00
2018-10-01T12:11:41.389Z,0.80
2018-10-01T12:12:41.385Z,1.10
2018-10-01T12:13:41.389Z,1.20
2018-10-01T12:14:41.388Z,1.10
2018-10-01T12:15:41.490Z,1.20
2018-10-01T12:16:41.387Z,1.10
2018-10-01T12:17:41.381Z,1.40
2018-10-01T12:18:41.379Z,1.50
2018-10-01T12:19:41.379Z,1.20
2018-10-01T12:20:41.376Z,1.60
2018-10-01T12:21:41.552Z,1.30
2018-10-01T12:22:41.382Z,1.30
2018-10-01T12:23:41.375Z,1.60
2018-10-01T12:24:41.372Z,1.50
2018-10-01T12:25:41.376Z,1.40
2018-10-01T12:26:41.377Z,1.50
2018-10-01T12:27:41.394Z,1.20
2018-10-01T12:28:41.373Z,1.30
2018-10-01T12:29:41.368Z,1.20
2018-10-01T12:30:41.367Z,1.20
2018-10-01T12:31:41.392Z,1.00
2018-10-01T12:32:41.365Z,1.00
2018-10-01T12:33:41.400Z,0.80
2018-10-01T12:34:41.368Z,0.90
2018-10-01T12:35:41.366Z,1.10
2018-10-01T12:36:41.365Z,0.90
2018-10-01T12:37:41.363Z,0.90
2018-10-01T12:38:41.359Z,1.00
2018-10-01T12:39:41.438Z,0.90
2018-10-01T12:40:41.361Z,1.10
2018-10-01T12:41:41.354Z,1.00
2018-10-01T12:42:41.358Z,0.80
2018-10-01T12:43:41.353Z,0.90
2018-10-01T12:44:41.353Z,1.00
2018-10-01T12:45:41.380Z,0.90
2018-10-01T12:46:41.355Z,1.10
2018-10-01T12:47:41.356Z,0.90
2018-10-01T12:48:41.353Z,1.10
2018-10-01T12:49:41.345Z,1.00
2018-10-01T12:50:41.345Z,1.20
2018-10-01T12:51:41.411Z,1.10
2018-10-01T12:52:41.342Z,1.00
2018-10-01T12:53:41.344Z,1.10
2018-10-01T12:54:41.342Z,1.20
2018-10-01T12:55:41.336Z,1.30
2018-10-01T12:56:41.337Z,1.20
2018-10-01T12:57:41.449Z,1.20
2018-10-01T12:58:41.335Z,1.00
2018-10-01T12:59:41.500Z,1.00
2018-10-01T13:00:41.333Z,1.10
2018-10-01T13:01:41.323Z,0.70
2018-10-01T13:02:41.323Z,1.20
2018-10-01T13:03:41.320Z,1.10
2018-10-01T13:04:41.317Z,0.70
2018-10-01T13:05:41.319Z,0.90
2018-10-01T13:06:41.328Z,0.70
2018-10-01T13:07:41.315Z,1.10
2018-10-01T13:08:41.310Z,0.70
2018-10-01T13:09:41.305Z,0.70
2018-10-01T13:10:41.303Z,0.80
2018-10-01T13:11:41.314Z,0.80
2018-10-01T13:12:41.355Z,1.00
2018-10-01T13:13:41.296Z,0.70
2018-10-01T13:14:41.293Z,0.80
2018-10-01T13:15:41.291Z,0.80
2018-10-01T13:16:41.290Z,0.90
2018-10-01T13:17:41.292Z,0.80
2018-10-01T13:18:41.471Z,0.80